sensor_id;sensor_type;location;lat;lon;timestamp;pressure;altitude;pressure_sealevel;temperature;humidity
5146;BME280;2591;48.144;15.152;2023-04-23T00:00:07;75499.25;;;-144.65;100.00
5146;BME280;2591;48.144;15.152;2023-04-23T00:02:39;75503.34;;;-144.65;100.00
5146;BME280;2591;48.144;15.152;2023-04-23T00:05:09;75499.25;;;-144.65;100.00
5146;BME280;2591;48.144;15.152;2023-04-23T00:07:38;75499.25;;;-144.65;100.00
5146;BME280;2591;48.144;15.152;2023-04-23T00:10:07;75503.34;;;-144.65;100.00
5146;BME280;2591;48.144;15.152;2023-04-23T00:12:36;75507.41;;;-144.65;100.00
5146;BME280;2591;48.144;15.152;2023-04-23T00:15:06;75505.38;;;-144.65;100.00
5146;BME280;2591;48.144;15.152;2023-04-23T00:17:34;75505.38;;;-144.65;100.00
5146;BME280;2591;48.144;15.152;2023-04-23T00:20:03;75501.28;;;-144.65;100.00
5146;BME280;2591;48.144;15.152;2023-04-23T00:22:32;75511.47;;;-144.65;100.00
5146;BME280;2591;48.144;15.152;2023-04-23T00:24:59;75507.41;;;-144.65;100.00
5146;BME280;2591;48.144;15.152;2023-04-23T00:27:27;75515.56;;;-144.65;100.00
5146;BME280;2591;48.144;15.152;2023-04-23T00:29:55;75523.72;;;-144.65;100.00
5146;BME280;2591;48.144;15.152;2023-04-23T00:32:24;75521.69;;;-144.65;100.00
5146;BME280;2591;48.144;15.152;2023-04-23T00:34:52;75525.75;;;-144.65;100.00
5146;BME280;2591;48.144;15.152;2023-04-23T00:37:21;75531.88;;;-144.65;100.00
5146;BME280;2591;48.144;15.152;2023-04-23T00:39:48;75529.84;;;-144.65;100.00
5146;BME280;2591;48.144;15.152;2023-04-23T00:42:16;75535.94;;;-144.65;100.00
5146;BME280;2591;48.144;15.152;2023-04-23T00:44:44;75531.88;;;-144.65;100.00
5146;BME280;2591;48.144;15.152;2023-04-23T00:47:13;75531.88;;;-144.65;100.00
5146;BME280;2591;48.144;15.152;2023-04-23T00:49:44;75535.94;;;-144.65;100.00
5146;BME280;2591;48.144;15.152;2023-04-23T00:52:12;75542.06;;;-144.65;100.00
5146;BME280;2591;48.144;15.152;2023-04-23T00:54:39;75544.09;;;-144.65;100.00
5146;BME280;2591;48.144;15.152;2023-04-23T00:57:08;75546.13;;;-144.65;100.00
5146;BME280;2591;48.144;15.152;2023-04-23T00:59:36;75554.28;;;-144.65;100.00
5146;BME280;2591;48.144;15.152;2023-04-23T01:02:04;75560.41;;;-144.65;100.00
5146;BME280;2591;48.144;15.152;2023-04-23T01:04:32;75552.25;;;-144.65;100.00
5146;BME280;2591;48.144;15.152;2023-04-23T01:07:01;75556.34;;;-144.65;100.00
5146;BME280;2591;48.144;15.152;2023-04-23T01:09:29;75564.47;;;-144.65;100.00
5146;BME280;2591;48.144;15.152;2023-04-23T01:11:58;75568.56;;;-144.65;100.00
5146;BME280;2591;48.144;15.152;2023-04-23T01:14:28;75572.63;;;-144.65;100.00
5146;BME280;2591;48.144;15.152;2023-04-23T01:16:56;75580.78;;;-144.65;100.00
5146;BME280;2591;48.144;15.152;2023-04-23T01:19:23;75593.03;;;-144.65;100.00
5146;BME280;2591;48.144;15.152;2023-04-23T01:21:52;75591.00;;;-144.65;100.00
5146;BME280;2591;48.144;15.152;2023-04-23T01:24:21;75588.94;;;-144.65;100.00
5146;BME280;2591;48.144;15.152;2023-04-23T01:26:50;75593.03;;;-144.65;100.00
5146;BME280;2591;48.144;15.152;2023-04-23T01:29:19;75597.09;;;-144.65;100.00
5146;BME280;2591;48.144;15.152;2023-04-23T01:31:47;75601.19;;;-144.65;100.00
5146;BME280;2591;48.144;15.152;2023-04-23T01:34:16;75605.25;;;-144.65;100.00
5146;BME280;2591;48.144;15.152;2023-04-23T01:36:44;75605.25;;;-144.65;100.00
5146;BME280;2591;48.144;15.152;2023-04-23T01:39:12;75613.41;;;-144.65;100.00
5146;BME280;2591;48.144;15.152;2023-04-23T01:41:42;75615.44;;;-144.65;100.00
5146;BME280;2591;48.144;15.152;2023-04-23T01:44:10;75617.50;;;-144.65;100.00
5146;BME280;2591;48.144;15.152;2023-04-23T01:46:38;75619.53;;;-144.65;100.00
5146;BME280;2591;48.144;15.152;2023-04-23T01:49:06;75629.72;;;-144.65;100.00
5146;BME280;2591;48.144;15.152;2023-04-23T01:51:34;75631.75;;;-144.65;100.00
5146;BME280;2591;48.144;15.152;2023-04-23T01:54:02;75633.78;;;-144.65;100.00
5146;BME280;2591;48.144;15.152;2023-04-23T01:56:30;75641.94;;;-144.65;100.00
5146;BME280;2591;48.144;15.152;2023-04-23T01:59:02;75650.09;;;-144.65;100.00
5146;BME280;2591;48.144;15.152;2023-04-23T02:01:40;75658.25;;;-144.65;100.00
5146;BME280;2591;48.144;15.152;2023-04-23T02:04:11;75658.25;;;-144.65;100.00
5146;BME280;2591;48.144;15.152;2023-04-23T02:06:40;75658.25;;;-144.65;100.00
5146;BME280;2591;48.144;15.152;2023-04-23T02:09:08;75652.13;;;-144.65;100.00
5146;BME280;2591;48.144;15.152;2023-04-23T02:11:37;75662.34;;;-144.65;100.00
5146;BME280;2591;48.144;15.152;2023-04-23T02:14:06;75666.41;;;-144.65;100.00
5146;BME280;2591;48.144;15.152;2023-04-23T02:16:34;75674.56;;;-144.65;100.00
5146;BME280;2591;48.144;15.152;2023-04-23T02:19:02;75674.56;;;-144.65;100.00
5146;BME280;2591;48.144;15.152;2023-04-23T02:21:30;75678.63;;;-144.65;100.00
5146;BME280;2591;48.144;15.152;2023-04-23T02:23:58;75688.84;;;-144.65;100.00
5146;BME280;2591;48.144;15.152;2023-04-23T02:26:26;75701.06;;;-144.65;100.00
5146;BME280;2591;48.144;15.152;2023-04-23T02:28:54;75703.09;;;-144.65;100.00
5146;BME280;2591;48.144;15.152;2023-04-23T02:31:23;75703.09;;;-144.65;100.00
5146;BME280;2591;48.144;15.152;2023-04-23T02:33:51;75701.06;;;-144.65;100.00
5146;BME280;2591;48.144;15.152;2023-04-23T02:36:19;75709.22;;;-144.65;100.00
5146;BME280;2591;48.144;15.152;2023-04-23T02:38:47;75715.34;;;-144.65;100.00
5146;BME280;2591;48.144;15.152;2023-04-23T02:41:16;75719.41;;;-144.65;100.00
5146;BME280;2591;48.144;15.152;2023-04-23T02:43:44;75723.50;;;-144.65;100.00
5146;BME280;2591;48.144;15.152;2023-04-23T02:46:12;75723.50;;;-144.65;100.00
5146;BME280;2591;48.144;15.152;2023-04-23T02:48:41;75719.41;;;-144.65;100.00
5146;BME280;2591;48.144;15.152;2023-04-23T02:51:11;75731.66;;;-144.65;100.00
5146;BME280;2591;48.144;15.152;2023-04-23T02:53:39;75741.84;;;-144.65;100.00
5146;BME280;2591;48.144;15.152;2023-04-23T02:56:07;75752.03;;;-144.65;100.00
5146;BME280;2591;48.144;15.152;2023-04-23T02:58:35;75747.94;;;-144.65;100.00
5146;BME280;2591;48.144;15.152;2023-04-23T03:01:03;75747.94;;;-144.65;100.00
5146;BME280;2591;48.144;15.152;2023-04-23T03:03:32;75745.91;;;-144.65;100.00
5146;BME280;2591;48.144;15.152;2023-04-23T03:06:02;75747.94;;;-144.65;100.00
5146;BME280;2591;48.144;15.152;2023-04-23T03:08:30;75752.03;;;-144.65;100.00
5146;BME280;2591;48.144;15.152;2023-04-23T03:10:58;75756.09;;;-144.65;100.00
5146;BME280;2591;48.144;15.152;2023-04-23T03:13:25;75756.09;;;-144.65;100.00
5146;BME280;2591;48.144;15.152;2023-04-23T03:15:53;75760.19;;;-144.65;100.00
5146;BME280;2591;48.144;15.152;2023-04-23T03:18:21;75760.19;;;-144.65;100.00
5146;BME280;2591;48.144;15.152;2023-04-23T03:20:49;75764.25;;;-144.65;100.00
5146;BME280;2591;48.144;15.152;2023-04-23T03:23:18;75768.34;;;-144.65;100.00
5146;BME280;2591;48.144;15.152;2023-04-23T03:25:46;75770.38;;;-144.65;100.00
5146;BME280;2591;48.144;15.152;2023-04-23T03:28:14;75780.56;;;-144.65;100.00
5146;BME280;2591;48.144;15.152;2023-04-23T03:30:42;75774.47;;;-144.65;100.00
5146;BME280;2591;48.144;15.152;2023-04-23T03:33:10;75782.59;;;-144.65;100.00
5146;BME280;2591;48.144;15.152;2023-04-23T03:35:38;75782.59;;;-144.65;100.00
5146;BME280;2591;48.144;15.152;2023-04-23T03:38:05;75780.56;;;-144.65;100.00
5146;BME280;2591;48.144;15.152;2023-04-23T03:40:35;75788.72;;;-144.65;100.00
5146;BME280;2591;48.144;15.152;2023-04-23T03:43:03;75788.72;;;-144.65;100.00
5146;BME280;2591;48.144;15.152;2023-04-23T03:45:31;75786.69;;;-144.65;100.00
5146;BME280;2591;48.144;15.152;2023-04-23T03:47:59;75792.81;;;-144.65;100.00
5146;BME280;2591;48.144;15.152;2023-04-23T03:50:27;75796.88;;;-144.65;100.00
5146;BME280;2591;48.144;15.152;2023-04-23T03:52:55;75807.06;;;-144.65;100.00
5146;BME280;2591;48.144;15.152;2023-04-23T03:55:22;75805.03;;;-144.65;100.00
5146;BME280;2591;48.144;15.152;2023-04-23T03:57:52;75809.13;;;-144.65;100.00
5146;BME280;2591;48.144;15.152;2023-04-23T04:00:20;75807.06;;;-144.65;100.00
5146;BME280;2591;48.144;15.152;2023-04-23T04:02:47;75807.06;;;-144.65;100.00
5146;BME280;2591;48.144;15.152;2023-04-23T04:05:15;75811.16;;;-144.65;100.00
5146;BME280;2591;48.144;15.152;2023-04-23T04:07:43;75811.16;;;-144.65;100.00
5146;BME280;2591;48.144;15.152;2023-04-23T04:10:11;75811.16;;;-144.65;100.00
5146;BME280;2591;48.144;15.152;2023-04-23T04:12:39;75813.19;;;-144.65;100.00
5146;BME280;2591;48.144;15.152;2023-04-23T04:15:09;75813.19;;;-144.65;100.00
5146;BME280;2591;48.144;15.152;2023-04-23T04:17:37;75817.25;;;-144.65;100.00
5146;BME280;2591;48.144;15.152;2023-04-23T04:20:07;75813.19;;;-144.65;100.00
5146;BME280;2591;48.144;15.152;2023-04-23T04:22:37;75809.13;;;-144.65;100.00
5146;BME280;2591;48.144;15.152;2023-04-23T04:25:05;75817.25;;;-144.65;100.00
5146;BME280;2591;48.144;15.152;2023-04-23T04:27:33;75813.19;;;-144.65;100.00
5146;BME280;2591;48.144;15.152;2023-04-23T04:30:02;75811.16;;;-144.65;100.00
5146;BME280;2591;48.144;15.152;2023-04-23T04:32:32;75805.03;;;-144.65;100.00
5146;BME280;2591;48.144;15.152;2023-04-23T04:35:00;75800.97;;;-144.65;100.00
5146;BME280;2591;48.144;15.152;2023-04-23T04:37:28;75796.88;;;-144.65;100.00
5146;BME280;2591;48.144;15.152;2023-04-23T04:39:56;75790.75;;;-144.65;100.00
5146;BME280;2591;48.144;15.152;2023-04-23T04:42:23;75776.50;;;-144.65;100.00
5146;BME280;2591;48.144;15.152;2023-04-23T04:44:51;75772.41;;;-144.65;100.00
5146;BME280;2591;48.144;15.152;2023-04-23T04:47:19;75760.19;;;-144.65;100.00
5146;BME280;2591;48.144;15.152;2023-04-23T04:49:48;75756.09;;;-144.65;100.00
5146;BME280;2591;48.144;15.152;2023-04-23T04:52:17;75737.75;;;-144.65;100.00
5146;BME280;2591;48.144;15.152;2023-04-23T04:54:45;75727.56;;;-144.65;100.00
5146;BME280;2591;48.144;15.152;2023-04-23T04:57:13;75711.25;;;-144.65;100.00
5146;BME280;2591;48.144;15.152;2023-04-23T04:59:41;75694.94;;;-144.65;100.00
5146;BME280;2591;48.144;15.152;2023-04-23T05:02:09;75680.69;;;-144.65;100.00
5146;BME280;2591;48.144;15.152;2023-04-23T05:04:37;75662.34;;;-144.65;100.00
5146;BME280;2591;48.144;15.152;2023-04-23T05:07:07;75633.78;;;-144.65;100.00
5146;BME280;2591;48.144;15.152;2023-04-23T05:09:35;75631.75;;;-144.65;100.00
5146;BME280;2591;48.144;15.152;2023-04-23T05:12:03;75627.69;;;-144.65;100.00
5146;BME280;2591;48.144;15.152;2023-04-23T05:14:32;75609.34;;;-144.65;100.00
5146;BME280;2591;48.144;15.152;2023-04-23T05:17:00;75597.09;;;-144.65;100.00
5146;BME280;2591;48.144;15.152;2023-04-23T05:19:28;75593.03;;;-144.65;100.00
5146;BME280;2591;48.144;15.152;2023-04-23T05:21:57;75580.78;;;-144.65;100.00
5146;BME280;2591;48.144;15.152;2023-04-23T05:24:26;75580.78;;;-144.65;100.00
5146;BME280;2591;48.144;15.152;2023-04-23T05:26:54;75572.63;;;-144.65;100.00
5146;BME280;2591;48.144;15.152;2023-04-23T05:29:22;75574.69;;;-144.65;100.00
5146;BME280;2591;48.144;15.152;2023-04-23T05:31:50;75568.56;;;-144.65;100.00
5146;BME280;2591;48.144;15.152;2023-04-23T05:34:18;75560.41;;;-144.65;100.00
5146;BME280;2591;48.144;15.152;2023-04-23T05:36:46;75560.41;;;-144.65;100.00
5146;BME280;2591;48.144;15.152;2023-04-23T05:39:14;75550.22;;;-144.65;100.00
5146;BME280;2591;48.144;15.152;2023-04-23T05:41:43;75556.34;;;-144.65;100.00
5146;BME280;2591;48.144;15.152;2023-04-23T05:44:11;75564.47;;;-144.65;100.00
5146;BME280;2591;48.144;15.152;2023-04-23T05:46:39;75566.53;;;-144.65;100.00
5146;BME280;2591;48.144;15.152;2023-04-23T05:49:06;75564.47;;;-144.65;100.00
5146;BME280;2591;48.144;15.152;2023-04-23T05:51:34;75560.41;;;-144.65;100.00
5146;BME280;2591;48.144;15.152;2023-04-23T05:54:02;75560.41;;;-144.65;100.00
5146;BME280;2591;48.144;15.152;2023-04-23T05:56:30;75548.19;;;-144.65;100.00
5146;BME280;2591;48.144;15.152;2023-04-23T05:58:59;75540.03;;;-144.65;100.00
5146;BME280;2591;48.144;15.152;2023-04-23T06:01:27;75527.78;;;-144.65;100.00
5146;BME280;2591;48.144;15.152;2023-04-23T06:03:55;75523.72;;;-144.65;100.00
5146;BME280;2591;48.144;15.152;2023-04-23T06:06:23;75521.69;;;-144.65;100.00
5146;BME280;2591;48.144;15.152;2023-04-23T06:08:51;75523.72;;;-144.65;100.00
5146;BME280;2591;48.144;15.152;2023-04-23T06:11:19;75515.56;;;-144.65;100.00
5146;BME280;2591;48.144;15.152;2023-04-23T06:13:47;75487.03;;;-144.65;100.00
5146;BME280;2591;48.144;15.152;2023-04-23T06:16:18;75466.63;;;-144.65;100.00
5146;BME280;2591;48.144;15.152;2023-04-23T06:18:46;75442.19;;;-144.65;100.00
5146;BME280;2591;48.144;15.152;2023-04-23T06:21:13;75432.00;;;-144.65;100.00
5146;BME280;2591;48.144;15.152;2023-04-23T06:23:43;75423.84;;;-144.65;100.00
5146;BME280;2591;48.144;15.152;2023-04-23T06:26:11;75393.25;;;-144.65;100.00
5146;BME280;2591;48.144;15.152;2023-04-23T06:28:40;75385.09;;;-144.65;100.00
5146;BME280;2591;48.144;15.152;2023-04-23T06:31:08;75364.72;;;-144.65;100.00
5146;BME280;2591;48.144;15.152;2023-04-23T06:33:37;75356.56;;;-144.65;100.00
5146;BME280;2591;48.144;15.152;2023-04-23T06:36:06;75334.16;;;-144.65;100.00
5146;BME280;2591;48.144;15.152;2023-04-23T06:38:36;75311.72;;;-144.65;100.00
5146;BME280;2591;48.144;15.152;2023-04-23T06:41:05;75287.25;;;-144.65;100.00
5146;BME280;2591;48.144;15.152;2023-04-23T06:43:35;75270.97;;;-144.65;100.00
5146;BME280;2591;48.144;15.152;2023-04-23T06:46:02;75246.50;;;-144.65;100.00
5146;BME280;2591;48.144;15.152;2023-04-23T06:48:30;75252.63;;;-144.65;100.00
5146;BME280;2591;48.144;15.152;2023-04-23T06:51:00;75236.31;;;-144.65;100.00
5146;BME280;2591;48.144;15.152;2023-04-23T06:53:28;75209.81;;;-144.65;100.00
5146;BME280;2591;48.144;15.152;2023-04-23T06:55:56;75211.84;;;-144.65;100.00
5146;BME280;2591;48.144;15.152;2023-04-23T06:58:24;75217.97;;;-144.65;99.87
5146;BME280;2591;48.144;15.152;2023-04-23T07:00:57;75205.72;;;-144.65;100.00
5146;BME280;2591;48.144;15.152;2023-04-23T07:03:26;75197.56;;;-144.65;100.00
5146;BME280;2591;48.144;15.152;2023-04-23T07:05:54;75187.38;;;-144.65;100.00
5146;BME280;2591;48.144;15.152;2023-04-23T07:08:23;75169.03;;;-144.65;100.00
5146;BME280;2591;48.144;15.152;2023-04-23T07:10:51;75148.66;;;-144.65;100.00
5146;BME280;2591;48.144;15.152;2023-04-23T07:13:19;75144.59;;;-144.65;99.00
5146;BME280;2591;48.144;15.152;2023-04-23T07:15:47;75134.41;;;-144.65;97.94
5146;BME280;2591;48.144;15.152;2023-04-23T07:18:15;75128.28;;;-144.65;95.75
5146;BME280;2591;48.144;15.152;2023-04-23T07:20:43;75103.81;;;-144.65;96.87
5146;BME280;2591;48.144;15.152;2023-04-23T07:23:11;75081.41;;;-144.65;93.98
5146;BME280;2591;48.144;15.152;2023-04-23T07:25:40;75079.38;;;-144.65;92.24
5146;BME280;2591;48.144;15.152;2023-04-23T07:28:08;75067.13;;;-144.65;91.36
5146;BME280;2591;48.144;15.152;2023-04-23T07:30:36;75034.53;;;-144.65;92.22
5146;BME280;2591;48.144;15.152;2023-04-23T07:33:03;75018.22;;;-144.65;91.74
5146;BME280;2591;48.144;15.152;2023-04-23T07:35:31;75018.22;;;-144.65;89.06
5146;BME280;2591;48.144;15.152;2023-04-23T07:37:59;75012.09;;;-144.65;88.14
5146;BME280;2591;48.144;15.152;2023-04-23T07:40:27;74997.84;;;-144.65;86.79
5146;BME280;2591;48.144;15.152;2023-04-23T07:42:56;74989.69;;;-144.65;86.38
5146;BME280;2591;48.144;15.152;2023-04-23T07:45:25;74973.38;;;-144.65;88.46
5146;BME280;2591;48.144;15.152;2023-04-23T07:47:53;74961.16;;;-144.65;86.53
5146;BME280;2591;48.144;15.152;2023-04-23T07:50:23;74950.97;;;-144.65;86.26
5146;BME280;2591;48.144;15.152;2023-04-23T07:53:19;74910.19;;;-144.65;86.34
5146;BME280;2591;48.144;15.152;2023-04-23T07:55:46;74904.09;;;-144.65;84.23
5146;BME280;2591;48.144;15.152;2023-04-23T07:58:16;74891.84;;;-144.65;84.58
5146;BME280;2591;48.144;15.152;2023-04-23T08:00:43;74865.34;;;-144.65;85.43
5146;BME280;2591;48.144;15.152;2023-04-23T08:03:11;74851.09;;;-144.65;84.82
5146;BME280;2591;48.144;15.152;2023-04-23T08:05:40;74847.00;;;-144.65;82.78
5146;BME280;2591;48.144;15.152;2023-04-23T08:08:09;74832.75;;;-144.65;82.72
5146;BME280;2591;48.144;15.152;2023-04-23T08:10:37;74836.81;;;-144.65;82.98
5146;BME280;2591;48.144;15.152;2023-04-23T08:13:05;74830.72;;;-144.65;82.37
5146;BME280;2591;48.144;15.152;2023-04-23T08:15:35;74820.53;;;-144.65;81.34
5146;BME280;2591;48.144;15.152;2023-04-23T08:18:04;74796.06;;;-144.65;80.06
5146;BME280;2591;48.144;15.152;2023-04-23T08:20:33;74765.50;;;-144.65;81.67
5146;BME280;2591;48.144;15.152;2023-04-23T08:23:01;74771.59;;;-144.65;79.96
5146;BME280;2591;48.144;15.152;2023-04-23T08:25:29;74761.41;;;-144.65;80.28
5146;BME280;2591;48.144;15.152;2023-04-23T08:27:58;74728.81;;;-144.65;81.21
5146;BME280;2591;48.144;15.152;2023-04-23T08:30:27;74704.34;;;-144.65;80.35
5146;BME280;2591;48.144;15.152;2023-04-23T08:32:56;74667.69;;;-144.65;74.62
5146;BME280;2591;48.144;15.152;2023-04-23T08:35:25;74639.13;;;-144.65;70.67
5146;BME280;2591;48.144;15.152;2023-04-23T08:37:53;74624.88;;;-144.65;69.35
5146;BME280;2591;48.144;15.152;2023-04-23T08:40:21;74622.84;;;-144.65;68.31
5146;BME280;2591;48.144;15.152;2023-04-23T08:42:55;74637.09;;;-144.65;69.17
5146;BME280;2591;48.144;15.152;2023-04-23T08:45:24;74624.88;;;-144.65;68.16
5146;BME280;2591;48.144;15.152;2023-04-23T08:47:58;74622.84;;;-144.65;69.07
5146;BME280;2591;48.144;15.152;2023-04-23T08:50:28;74606.53;;;-144.65;67.92
5146;BME280;2591;48.144;15.152;2023-04-23T08:52:57;74612.66;;;-144.65;68.31
5146;BME280;2591;48.144;15.152;2023-04-23T08:55:25;74610.63;;;-144.65;67.41
5146;BME280;2591;48.144;15.152;2023-04-23T08:57:53;74608.56;;;-144.65;66.01
5146;BME280;2591;48.144;15.152;2023-04-23T09:00:22;74610.63;;;-144.65;65.42
5146;BME280;2591;48.144;15.152;2023-04-23T09:02:52;74622.84;;;-144.65;66.62
5146;BME280;2591;48.144;15.152;2023-04-23T09:05:22;74626.91;;;-144.65;67.41
5146;BME280;2591;48.144;15.152;2023-04-23T09:07:50;74604.50;;;-144.65;65.63
5146;BME280;2591;48.144;15.152;2023-04-23T09:10:19;74624.88;;;-144.65;66.74
5146;BME280;2591;48.144;15.152;2023-04-23T09:12:47;74618.75;;;-144.65;66.79
5146;BME280;2591;48.144;15.152;2023-04-23T09:15:15;74610.63;;;-144.65;66.53
5146;BME280;2591;48.144;15.152;2023-04-23T09:17:45;74598.38;;;-144.65;65.80
5146;BME280;2591;48.144;15.152;2023-04-23T09:20:13;74594.31;;;-144.65;65.88
5146;BME280;2591;48.144;15.152;2023-04-23T09:22:44;74598.38;;;-144.65;65.59
5146;BME280;2591;48.144;15.152;2023-04-23T09:25:16;74606.53;;;-144.65;66.83
5146;BME280;2591;48.144;15.152;2023-04-23T09:27:45;74610.63;;;-144.65;68.01
5146;BME280;2591;48.144;15.152;2023-04-23T09:30:13;74604.50;;;-144.65;68.39
5146;BME280;2591;48.144;15.152;2023-04-23T09:32:43;74598.38;;;-144.65;68.22
5146;BME280;2591;48.144;15.152;2023-04-23T09:35:13;74559.66;;;-144.65;67.31
5146;BME280;2591;48.144;15.152;2023-04-23T09:37:47;74525.03;;;-144.65;66.66
5146;BME280;2591;48.144;15.152;2023-04-23T09:40:22;74492.41;;;-144.65;64.98
5146;BME280;2591;48.144;15.152;2023-04-23T09:42:51;74476.13;;;-144.65;65.26
5146;BME280;2591;48.144;15.152;2023-04-23T09:45:20;74439.44;;;-144.65;65.17
5146;BME280;2591;48.144;15.152;2023-04-23T09:47:52;74380.34;;;-144.65;65.82
5146;BME280;2591;48.144;15.152;2023-04-23T09:50:31;74333.47;;;-144.65;63.64
5146;BME280;2591;48.144;15.152;2023-04-23T09:53:00;74353.84;;;-144.65;61.89
5146;BME280;2591;48.144;15.152;2023-04-23T09:55:30;74341.63;;;-144.65;63.28
5146;BME280;2591;48.144;15.152;2023-04-23T09:58:02;74313.09;;;-144.65;61.58
5146;BME280;2591;48.144;15.152;2023-04-23T10:00:34;74302.91;;;-144.65;61.44
5146;BME280;2591;48.144;15.152;2023-04-23T10:03:03;74268.25;;;-144.65;60.83
5146;BME280;2591;48.144;15.152;2023-04-23T10:05:37;74272.34;;;-144.65;61.37
5146;BME280;2591;48.144;15.152;2023-04-23T10:08:27;74247.88;;;-144.65;59.47
5146;BME280;2591;48.144;15.152;2023-04-23T10:10:55;74223.44;;;-144.65;59.83
5146;BME280;2591;48.144;15.152;2023-04-23T10:13:40;74188.78;;;-144.65;57.76
5146;BME280;2591;48.144;15.152;2023-04-23T10:16:08;74190.81;;;-144.65;59.03
5146;BME280;2591;48.144;15.152;2023-04-23T10:18:50;74170.44;;;-144.65;58.60
5146;BME280;2591;48.144;15.152;2023-04-23T10:21:24;74141.94;;;-144.65;54.72
5146;BME280;2591;48.144;15.152;2023-04-23T10:24:08;74178.59;;;-144.65;55.42
5146;BME280;2591;48.144;15.152;2023-04-23T10:26:37;74172.50;;;-144.65;54.50
5146;BME280;2591;48.144;15.152;2023-04-23T10:29:08;74168.41;;;-144.65;54.09
5146;BME280;2591;48.144;15.152;2023-04-23T10:31:41;74141.94;;;-144.65;53.31
5146;BME280;2591;48.144;15.152;2023-04-23T10:34:09;74121.56;;;-144.65;55.29
5146;BME280;2591;48.144;15.152;2023-04-23T10:36:37;74084.88;;;-144.65;54.27
5146;BME280;2591;48.144;15.152;2023-04-23T10:39:06;74052.28;;;-144.65;52.13
5146;BME280;2591;48.144;15.152;2023-04-23T10:41:37;74052.28;;;-144.65;51.02
5146;BME280;2591;48.144;15.152;2023-04-23T10:44:10;74064.50;;;-144.65;51.44
5146;BME280;2591;48.144;15.152;2023-04-23T10:46:38;74056.34;;;-144.65;50.25
5146;BME280;2591;48.144;15.152;2023-04-23T10:49:07;74088.94;;;-144.65;51.93
5146;BME280;2591;48.144;15.152;2023-04-23T10:51:39;74050.22;;;-144.65;50.69
5146;BME280;2591;48.144;15.152;2023-04-23T10:54:31;74042.09;;;-144.65;50.41
5146;BME280;2591;48.144;15.152;2023-04-23T10:57:01;74040.03;;;-144.65;52.05
5146;BME280;2591;48.144;15.152;2023-04-23T10:59:32;74011.53;;;-144.65;50.64
5146;BME280;2591;48.144;15.152;2023-04-23T11:02:05;74007.44;;;-144.65;50.06
5146;BME280;2591;48.144;15.152;2023-04-23T11:04:35;73997.25;;;-144.65;49.41
5146;BME280;2591;48.144;15.152;2023-04-23T11:07:04;73995.22;;;-144.65;49.89
5146;BME280;2591;48.144;15.152;2023-04-23T11:09:38;73987.06;;;-144.65;50.43
5146;BME280;2591;48.144;15.152;2023-04-23T11:12:10;73954.47;;;-144.65;49.22
5146;BME280;2591;48.144;15.152;2023-04-23T11:14:46;73968.72;;;-144.65;50.10
5146;BME280;2591;48.144;15.152;2023-04-23T11:17:16;73974.84;;;-144.65;50.94
5146;BME280;2591;48.144;15.152;2023-04-23T11:20:17;73962.63;;;-144.65;50.40
5146;BME280;2591;48.144;15.152;2023-04-23T11:22:46;73970.78;;;-144.65;51.02
5146;BME280;2591;48.144;15.152;2023-04-23T11:25:20;73966.69;;;-144.65;50.96
5146;BME280;2591;48.144;15.152;2023-04-23T11:27:49;73968.72;;;-144.65;50.64
5146;BME280;2591;48.144;15.152;2023-04-23T11:30:19;73972.81;;;-144.65;51.39
5146;BME280;2591;48.144;15.152;2023-04-23T11:32:48;73960.59;;;-144.65;50.39
5146;BME280;2591;48.144;15.152;2023-04-23T11:35:17;73976.88;;;-144.65;51.32
5146;BME280;2591;48.144;15.152;2023-04-23T11:37:46;73968.72;;;-144.65;51.08
5146;BME280;2591;48.144;15.152;2023-04-23T11:40:16;73966.69;;;-144.65;52.04
5146;BME280;2591;48.144;15.152;2023-04-23T11:42:46;73950.41;;;-144.65;52.18
5146;BME280;2591;48.144;15.152;2023-04-23T11:45:16;73930.00;;;-144.65;51.67
5146;BME280;2591;48.144;15.152;2023-04-23T11:47:49;73936.13;;;-144.65;52.13
5146;BME280;2591;48.144;15.152;2023-04-23T11:50:20;73934.09;;;-144.65;52.59
5146;BME280;2591;48.144;15.152;2023-04-23T11:52:48;73944.28;;;-144.65;52.78
5146;BME280;2591;48.144;15.152;2023-04-23T11:55:18;73921.88;;;-144.65;52.27
5146;BME280;2591;48.144;15.152;2023-04-23T11:57:48;73917.78;;;-144.65;52.89
5146;BME280;2591;48.144;15.152;2023-04-23T12:00:17;73909.66;;;-144.65;52.55
5146;BME280;2591;48.144;15.152;2023-04-23T12:02:50;73913.72;;;-144.65;53.39
5146;BME280;2591;48.144;15.152;2023-04-23T12:05:20;73901.50;;;-144.65;53.85
5146;BME280;2591;48.144;15.152;2023-04-23T12:07:51;73848.50;;;-144.65;51.66
5146;BME280;2591;48.144;15.152;2023-04-23T12:10:21;73856.66;;;-144.65;49.70
5146;BME280;2591;48.144;15.152;2023-04-23T12:12:50;73897.41;;;-144.65;51.20
5146;BME280;2591;48.144;15.152;2023-04-23T12:15:19;73881.13;;;-144.65;52.13
5146;BME280;2591;48.144;15.152;2023-04-23T12:17:48;73828.16;;;-144.65;51.29
5146;BME280;2591;48.144;15.152;2023-04-23T12:20:20;73836.28;;;-144.65;52.51
5146;BME280;2591;48.144;15.152;2023-04-23T12:22:48;73811.84;;;-144.65;51.13
5146;BME280;2591;48.144;15.152;2023-04-23T12:25:22;73828.16;;;-144.65;52.04
5146;BME280;2591;48.144;15.152;2023-04-23T12:27:50;73815.91;;;-144.65;50.65
5146;BME280;2591;48.144;15.152;2023-04-23T12:30:18;73803.69;;;-144.65;50.92
5146;BME280;2591;48.144;15.152;2023-04-23T12:32:45;73815.91;;;-144.65;52.90
5146;BME280;2591;48.144;15.152;2023-04-23T12:35:13;73785.34;;;-144.65;50.85
5146;BME280;2591;48.144;15.152;2023-04-23T12:37:41;73779.25;;;-144.65;50.67
5146;BME280;2591;48.144;15.152;2023-04-23T12:40:09;73795.53;;;-144.65;50.36
5146;BME280;2591;48.144;15.152;2023-04-23T12:42:39;73807.78;;;-144.65;50.06
5146;BME280;2591;48.144;15.152;2023-04-23T12:45:08;73783.31;;;-144.65;50.39
5146;BME280;2591;48.144;15.152;2023-04-23T12:47:36;73775.16;;;-144.65;52.19
5146;BME280;2591;48.144;15.152;2023-04-23T12:50:05;73738.50;;;-144.65;51.18
5146;BME280;2591;48.144;15.152;2023-04-23T12:52:33;73712.00;;;-144.65;51.39
5146;BME280;2591;48.144;15.152;2023-04-23T12:55:01;73697.75;;;-144.65;49.70